createdAt,value
2017-12-19T00:01:51.778Z,35.10
2017-12-19T00:04:17.523Z,37.80
2017-12-19T00:06:43.296Z,38.03
2017-12-19T00:09:09.051Z,37.30
2017-12-19T00:11:34.807Z,36.47
2017-12-19T00:14:00.564Z,37.90
2017-12-19T00:16:26.346Z,37.37
2017-12-19T00:18:52.094Z,36.53
2017-12-19T00:21:17.828Z,36.93
2017-12-19T00:23:43.578Z,37.97
2017-12-19T00:26:09.362Z,37.50
2017-12-19T00:28:35.107Z,38.70
2017-12-19T00:31:00.863Z,39.03
2017-12-19T00:33:26.625Z,37.47
2017-12-19T00:35:52.372Z,38.07
2017-12-19T00:38:18.143Z,38.43
2017-12-19T00:40:43.883Z,38.70
2017-12-19T00:43:09.643Z,37.40
2017-12-19T00:45:35.391Z,40.30
2017-12-19T00:48:01.164Z,35.07
2017-12-19T00:50:26.906Z,37.23
2017-12-19T00:52:52.664Z,36.57
2017-12-19T00:55:18.415Z,34.83
2017-12-19T00:57:44.172Z,35.93
2017-12-19T01:00:09.927Z,35.03
2017-12-19T01:02:35.679Z,35.73
2017-12-19T01:05:01.444Z,34.40
2017-12-19T01:07:27.195Z,35.77
2017-12-19T01:09:52.931Z,33.97
2017-12-19T01:12:18.750Z,34.50
2017-12-19T01:14:44.483Z,35.83
2017-12-19T01:17:10.220Z,35.37
2017-12-19T01:19:35.963Z,34.67
2017-12-19T01:22:01.699Z,36.40
2017-12-19T01:24:27.452Z,35.00
2017-12-19T01:26:53.192Z,35.37
2017-12-19T01:29:18.935Z,33.50
2017-12-19T01:31:44.679Z,33.03
2017-12-19T01:34:10.422Z,33.53
2017-12-19T01:36:36.172Z,33.73
2017-12-19T01:39:01.963Z,33.90
2017-12-19T01:41:27.716Z,35.37
2017-12-19T01:43:54.250Z,35.13
2017-12-19T01:46:20.003Z,36.80
2017-12-19T01:48:45.754Z,35.70
2017-12-19T01:51:11.503Z,35.73
2017-12-19T01:53:37.275Z,38.00
2017-12-19T01:56:03.611Z,35.47
2017-12-19T01:58:29.346Z,37.10
2017-12-19T02:00:55.094Z,38.53
2017-12-19T02:03:20.846Z,35.03
2017-12-19T02:05:46.612Z,36.80
2017-12-19T02:08:12.362Z,36.37
2017-12-19T02:10:38.111Z,38.57
2017-12-19T02:13:03.870Z,38.77
2017-12-19T02:15:29.614Z,37.47
2017-12-19T02:17:55.362Z,37.03
2017-12-19T02:20:21.140Z,36.37
2017-12-19T02:22:46.899Z,38.67
2017-12-19T02:25:12.667Z,39.80
2017-12-19T02:27:38.419Z,37.63
2017-12-19T02:30:04.184Z,37.60
2017-12-19T02:32:29.940Z,38.67
2017-12-19T02:34:55.677Z,37.73
2017-12-19T02:37:21.439Z,38.60
2017-12-19T02:39:47.207Z,41.43
2017-12-19T02:42:12.999Z,35.87
2017-12-19T02:44:38.758Z,38.70
2017-12-19T02:47:04.526Z,40.30
2017-12-19T02:49:30.289Z,36.20
2017-12-19T02:51:56.200Z,38.90
2017-12-19T02:54:21.959Z,36.17
2017-12-19T02:56:47.718Z,39.27
2017-12-19T02:59:13.479Z,36.23
2017-12-19T03:01:39.254Z,38.83
2017-12-19T03:04:05.000Z,37.97
2017-12-19T03:06:30.776Z,40.27
2017-12-19T03:08:56.578Z,37.70
2017-12-19T03:11:22.351Z,35.80
2017-12-19T03:13:48.131Z,35.20
2017-12-19T03:16:13.895Z,36.60
2017-12-19T03:18:39.684Z,39.17
2017-12-19T03:21:05.454Z,37.87
2017-12-19T03:23:31.203Z,38.30
2017-12-19T03:25:56.960Z,36.43
2017-12-19T03:28:22.721Z,38.37
2017-12-19T03:30:48.480Z,34.90
2017-12-19T03:33:14.231Z,35.00
2017-12-19T03:35:39.992Z,30.90
2017-12-19T03:38:05.771Z,32.53
2017-12-19T03:40:31.594Z,32.37
2017-12-19T03:42:57.321Z,34.57
2017-12-19T03:45:23.067Z,34.83
2017-12-19T03:47:48.858Z,31.97
2017-12-19T03:50:14.628Z,34.10
2017-12-19T03:52:40.400Z,32.70
2017-12-19T03:55:06.159Z,33.90
2017-12-19T03:57:31.915Z,30.30
2017-12-19T03:59:57.684Z,27.33
2017-12-19T04:02:23.458Z,33.93
2017-12-19T04:04:49.208Z,29.50
2017-12-19T04:07:15.008Z,29.33
2017-12-19T04:09:40.799Z,28.57
2017-12-19T04:12:06.577Z,30.90
2017-12-19T04:14:32.335Z,28.13
2017-12-19T04:16:58.100Z,32.87
2017-12-19T04:19:23.873Z,29.60
2017-12-19T04:21:49.630Z,29.53
2017-12-19T04:24:15.408Z,28.20
2017-12-19T04:26:41.159Z,28.97
2017-12-19T04:29:06.919Z,24.93
2017-12-19T04:31:32.672Z,27.17
2017-12-19T04:33:58.427Z,25.37
2017-12-19T04:36:24.183Z,26.93
2017-12-19T04:38:49.977Z,28.53
2017-12-19T04:41:15.724Z,28.97
2017-12-19T04:43:41.484Z,27.67
2017-12-19T04:46:07.260Z,25.13
2017-12-19T04:48:33.028Z,22.23
2017-12-19T04:50:58.800Z,27.67
2017-12-19T04:53:24.557Z,25.83
2017-12-19T04:55:50.336Z,24.20
2017-12-19T04:58:16.086Z,23.37
2017-12-19T05:00:41.853Z,21.80
2017-12-19T05:03:07.628Z,24.63
2017-12-19T05:05:33.384Z,19.77
2017-12-19T05:07:59.135Z,20.90
2017-12-19T05:10:24.909Z,19.57
2017-12-19T05:12:50.663Z,18.13
2017-12-19T05:15:16.424Z,17.23
2017-12-19T05:17:42.196Z,15.83
2017-12-19T05:20:07.964Z,16.07
2017-12-19T05:22:33.715Z,17.37
2017-12-19T05:24:59.507Z,15.37
2017-12-19T05:27:25.272Z,15.87
2017-12-19T05:29:51.037Z,15.27
2017-12-19T05:32:16.823Z,13.80
2017-12-19T05:34:42.567Z,15.83
2017-12-19T05:37:08.332Z,15.00
2017-12-19T05:39:34.068Z,13.83
2017-12-19T05:41:59.831Z,13.63
2017-12-19T05:44:25.604Z,13.90
2017-12-19T05:46:51.373Z,13.57
2017-12-19T05:49:17.134Z,12.87
2017-12-19T05:51:42.909Z,11.80
2017-12-19T05:54:08.684Z,14.10
2017-12-19T05:56:34.443Z,12.70
2017-12-19T05:59:00.204Z,12.67
2017-12-19T06:01:25.995Z,12.40
2017-12-19T06:03:51.746Z,12.07
2017-12-19T06:06:17.486Z,10.70
2017-12-19T06:08:43.243Z,10.63
2017-12-19T06:11:09.011Z,11.20
2017-12-19T06:13:34.792Z,12.30
2017-12-19T06:16:00.536Z,10.70
2017-12-19T06:18:26.292Z,11.87
2017-12-19T06:20:52.047Z,12.60
2017-12-19T06:23:17.829Z,11.77
2017-12-19T06:25:43.586Z,10.43
2017-12-19T06:28:09.347Z,9.30
2017-12-19T06:30:35.093Z,9.33
2017-12-19T06:33:00.848Z,9.50
2017-12-19T06:35:26.621Z,11.10
2017-12-19T06:37:52.392Z,10.80
2017-12-19T06:40:18.143Z,8.57
2017-12-19T06:42:43.891Z,8.77
2017-12-19T06:45:09.631Z,10.53
2017-12-19T06:47:35.400Z,8.57
2017-12-19T06:50:01.151Z,7.93
2017-12-19T06:52:26.939Z,8.60
2017-12-19T06:54:52.684Z,9.50
2017-12-19T06:57:18.428Z,8.90
2017-12-19T06:59:44.201Z,8.90
2017-12-19T07:02:09.964Z,9.03
2017-12-19T07:04:35.739Z,8.67
2017-12-19T07:07:01.511Z,9.13
2017-12-19T07:09:27.349Z,9.23
2017-12-19T07:11:53.066Z,9.33
2017-12-19T07:14:18.857Z,9.47
2017-12-19T07:16:44.622Z,8.37
2017-12-19T07:19:10.394Z,7.63
2017-12-19T07:21:36.172Z,7.67
2017-12-19T07:24:01.952Z,7.57
2017-12-19T07:26:27.711Z,7.43
2017-12-19T07:28:53.480Z,6.57
2017-12-19T07:31:19.252Z,6.67
2017-12-19T07:33:45.012Z,5.90
2017-12-19T07:36:10.771Z,4.93
2017-12-19T07:38:36.536Z,5.30
2017-12-19T07:41:02.304Z,5.00
2017-12-19T07:43:28.064Z,5.60
2017-12-19T07:45:53.844Z,5.00
2017-12-19T07:48:19.587Z,4.73
2017-12-19T07:50:45.339Z,4.53
2017-12-19T07:53:11.106Z,4.93
2017-12-19T07:58:09.518Z,5.25
2017-12-19T08:00:35.296Z,4.97
2017-12-19T08:03:01.052Z,4.70
2017-12-19T08:05:26.828Z,5.50
2017-12-19T08:07:59.670Z,5.33
2017-12-19T08:10:25.452Z,5.03
2017-12-19T08:12:51.217Z,4.80
2017-12-19T08:15:16.988Z,5.10
2017-12-19T08:17:42.763Z,4.80
2017-12-19T08:20:08.521Z,4.97
2017-12-19T08:22:34.299Z,5.17
2017-12-19T08:25:00.056Z,4.73
2017-12-19T08:27:25.828Z,4.90
2017-12-19T08:29:51.575Z,3.93
2017-12-19T08:32:17.347Z,4.10
2017-12-19T08:34:43.132Z,4.73
2017-12-19T08:37:08.909Z,4.70
2017-12-19T08:39:34.656Z,5.53
2017-12-19T08:42:00.431Z,5.17
2017-12-19T08:44:26.200Z,4.70
2017-12-19T08:46:51.971Z,4.63
2017-12-19T08:49:17.719Z,4.80
2017-12-19T08:51:43.697Z,4.70
2017-12-19T08:54:09.473Z,5.10
2017-12-19T08:56:35.241Z,5.53
2017-12-19T08:59:01.008Z,4.83
2017-12-19T09:01:26.769Z,5.27
2017-12-19T09:03:52.532Z,4.70
2017-12-19T09:06:18.280Z,4.73
2017-12-19T09:08:44.030Z,5.13
2017-12-19T09:11:09.780Z,5.27
2017-12-19T09:13:35.544Z,5.87
2017-12-19T09:16:01.295Z,4.57
2017-12-19T09:18:27.055Z,4.80
2017-12-19T09:20:52.828Z,5.43
2017-12-19T09:23:18.599Z,4.60
2017-12-19T09:25:44.360Z,6.03
2017-12-19T09:28:10.115Z,5.97
2017-12-19T09:30:35.863Z,8.53
2017-12-19T09:33:01.641Z,6.60
2017-12-19T09:35:27.422Z,6.87
2017-12-19T09:37:53.172Z,6.70
2017-12-19T09:40:18.931Z,7.37
2017-12-19T09:42:44.689Z,5.67
2017-12-19T09:45:10.458Z,5.50
2017-12-19T09:47:36.228Z,6.03
2017-12-19T09:50:01.993Z,6.73
2017-12-19T09:52:27.740Z,6.47
2017-12-19T09:55:00.585Z,5.13
2017-12-19T09:57:26.332Z,5.20
2017-12-19T09:59:52.100Z,5.03
2017-12-19T10:02:17.872Z,4.70
2017-12-19T10:04:43.652Z,5.20
2017-12-19T10:07:09.410Z,5.67
2017-12-19T10:09:35.176Z,5.30
2017-12-19T10:12:00.928Z,4.17
2017-12-19T10:14:26.688Z,4.50
2017-12-19T10:16:52.443Z,4.10
2017-12-19T10:19:18.207Z,4.43
2017-12-19T10:21:43.985Z,4.57
2017-12-19T10:24:09.748Z,4.93
2017-12-19T10:26:35.516Z,4.70
2017-12-19T10:29:01.284Z,4.30
2017-12-19T10:31:27.055Z,4.53
2017-12-19T10:33:52.817Z,4.13
2017-12-19T10:36:18.575Z,3.70
2017-12-19T10:38:44.356Z,3.93
2017-12-19T10:41:10.124Z,3.53
2017-12-19T10:43:35.890Z,3.80
2017-12-19T10:46:01.655Z,4.03
2017-12-19T10:48:27.440Z,3.97
2017-12-19T10:50:53.185Z,4.83
2017-12-19T10:53:18.954Z,5.10
2017-12-19T10:55:44.688Z,4.13
2017-12-19T10:58:10.439Z,4.90
2017-12-19T11:00:36.195Z,3.70
2017-12-19T11:03:01.950Z,4.67
2017-12-19T11:05:27.715Z,4.10
2017-12-19T11:07:53.476Z,3.67
2017-12-19T11:10:19.228Z,4.53
2017-12-19T11:12:44.984Z,4.30
2017-12-19T11:15:10.749Z,4.50
2017-12-19T11:17:36.520Z,4.50
2017-12-19T11:20:02.292Z,4.93
2017-12-19T11:22:28.069Z,4.70
2017-12-19T11:24:53.868Z,4.00
2017-12-19T11:27:19.652Z,3.90
2017-12-19T11:29:45.439Z,3.60
2017-12-19T11:32:11.200Z,3.33
2017-12-19T11:34:36.963Z,4.10
2017-12-19T11:37:02.726Z,4.33
2017-12-19T11:39:28.503Z,4.07
2017-12-19T11:41:54.259Z,3.60
2017-12-19T11:44:20.023Z,3.70
2017-12-19T11:46:45.784Z,3.43
2017-12-19T11:49:11.560Z,3.97
2017-12-19T11:51:37.310Z,3.77
2017-12-19T11:54:03.104Z,3.83
2017-12-19T11:56:28.863Z,3.73
2017-12-19T11:58:54.632Z,3.30
2017-12-19T12:01:20.375Z,3.33
2017-12-19T12:03:46.135Z,3.23
2017-12-19T12:06:11.884Z,3.83
2017-12-19T12:08:37.659Z,3.60
2017-12-19T12:11:03.428Z,4.10
2017-12-19T12:13:29.213Z,3.93
2017-12-19T12:15:54.960Z,4.23
2017-12-19T12:18:20.717Z,4.73
2017-12-19T12:20:46.475Z,4.00
2017-12-19T12:23:12.230Z,3.63
2017-12-19T12:25:37.988Z,3.43
2017-12-19T12:28:03.747Z,4.20
2017-12-19T12:30:29.527Z,3.87
2017-12-19T12:32:55.288Z,4.37
2017-12-19T12:35:21.068Z,3.77
2017-12-19T12:37:46.840Z,4.63
2017-12-19T12:40:12.603Z,4.40
2017-12-19T12:42:38.355Z,4.40
2017-12-19T12:45:04.102Z,4.83
2017-12-19T12:47:29.848Z,4.63
2017-12-19T12:49:55.592Z,4.20
2017-12-19T12:52:21.352Z,5.00
2017-12-19T12:54:47.103Z,4.70
2017-12-19T12:57:12.865Z,4.87
2017-12-19T12:59:38.663Z,4.60
2017-12-19T13:02:04.434Z,5.20
2017-12-19T13:04:30.219Z,4.93
2017-12-19T13:06:56.005Z,4.77
2017-12-19T13:09:21.774Z,5.27
2017-12-19T13:11:47.515Z,5.90
2017-12-19T13:14:13.290Z,6.10
2017-12-19T13:16:39.072Z,5.07
2017-12-19T13:19:04.829Z,5.50
2017-12-19T13:21:30.597Z,5.37
2017-12-19T13:23:56.359Z,6.33
2017-12-19T13:26:22.123Z,5.67
2017-12-19T13:28:47.868Z,5.70
2017-12-19T13:31:13.702Z,6.30
2017-12-19T13:33:39.399Z,6.23
2017-12-19T13:36:05.135Z,6.13
2017-12-19T13:38:30.900Z,5.70
2017-12-19T13:40:56.657Z,5.13
2017-12-19T13:43:22.407Z,5.23
2017-12-19T13:45:48.161Z,5.73
2017-12-19T13:48:13.919Z,5.80
2017-12-19T13:50:39.685Z,7.70
2017-12-19T13:53:05.455Z,6.57
2017-12-19T13:55:31.226Z,5.63
2017-12-19T13:57:56.992Z,4.90
2017-12-19T14:00:22.746Z,5.07
2017-12-19T14:02:48.495Z,5.67
2017-12-19T14:05:14.239Z,5.53
2017-12-19T14:07:40.028Z,5.50
2017-12-19T14:10:05.789Z,6.80
2017-12-19T14:12:31.533Z,6.43
2017-12-19T14:14:57.291Z,6.90
2017-12-19T14:17:23.052Z,7.03
2017-12-19T14:19:48.811Z,6.93
2017-12-19T14:22:14.568Z,6.80
2017-12-19T14:24:40.337Z,6.47
2017-12-19T14:27:06.082Z,6.20
2017-12-19T14:29:31.852Z,6.13
2017-12-19T14:31:57.615Z,5.83
2017-12-19T14:34:23.371Z,5.73
2017-12-19T14:36:49.131Z,6.63
2017-12-19T14:39:14.901Z,6.00
2017-12-19T14:41:40.656Z,6.57
2017-12-19T14:44:06.412Z,8.67
2017-12-19T14:46:32.181Z,13.20
2017-12-19T14:48:57.973Z,9.67
2017-12-19T14:51:23.727Z,13.17
2017-12-19T14:53:49.459Z,13.70
2017-12-19T14:56:15.203Z,12.87
2017-12-19T14:58:40.974Z,10.33
2017-12-19T15:01:06.732Z,9.73
2017-12-19T15:03:32.492Z,11.83
2017-12-19T15:05:58.255Z,11.73
2017-12-19T15:08:24.007Z,10.87
2017-12-19T15:10:49.777Z,9.87
2017-12-19T15:13:15.540Z,12.07
2017-12-19T15:15:41.308Z,11.03
2017-12-19T15:18:07.068Z,12.27
2017-12-19T15:20:32.824Z,10.23
2017-12-19T15:22:58.592Z,14.63
2017-12-19T15:25:24.347Z,13.20
2017-12-19T15:27:50.088Z,13.77
2017-12-19T15:30:15.847Z,13.57
2017-12-19T15:32:41.591Z,11.17
2017-12-19T15:35:07.367Z,15.67
2017-12-19T15:37:33.126Z,12.00
2017-12-19T15:39:58.891Z,11.37
2017-12-19T15:42:24.655Z,15.13
2017-12-19T15:44:50.416Z,19.43
2017-12-19T15:47:16.191Z,18.60
2017-12-19T15:49:41.951Z,50.10
2017-12-19T15:52:07.712Z,17.47
2017-12-19T15:54:33.465Z,16.60
2017-12-19T15:56:59.278Z,18.67
2017-12-19T15:59:24.997Z,18.00
2017-12-19T16:01:50.789Z,18.03
2017-12-19T16:04:16.539Z,17.53
2017-12-19T16:06:42.303Z,18.53
2017-12-19T16:09:08.065Z,24.80
2017-12-19T16:11:33.819Z,26.73
2017-12-19T16:13:59.560Z,22.53
2017-12-19T16:16:25.302Z,22.87
2017-12-19T16:18:51.059Z,22.80
2017-12-19T16:21:16.811Z,24.20
2017-12-19T16:23:42.554Z,22.67
2017-12-19T16:26:08.305Z,27.13
2017-12-19T16:28:34.051Z,25.97
2017-12-19T16:30:59.791Z,20.67
2017-12-19T16:33:25.551Z,21.70
2017-12-19T16:35:51.307Z,21.07
2017-12-19T16:38:17.080Z,19.17
2017-12-19T16:40:42.832Z,18.17
2017-12-19T16:43:08.610Z,20.27
2017-12-19T16:45:34.372Z,18.73
2017-12-19T16:48:00.131Z,19.90
2017-12-19T16:50:25.884Z,20.00
2017-12-19T16:52:51.652Z,19.63
2017-12-19T16:55:17.404Z,21.53
2017-12-19T16:57:43.161Z,20.00
2017-12-19T17:00:08.838Z,21.43
2017-12-19T17:02:34.502Z,17.50
2017-12-19T17:06:26.463Z,20.20
2017-12-19T17:08:52.210Z,19.23
2017-12-19T17:11:17.960Z,18.90
2017-12-19T17:13:43.699Z,18.50
2017-12-19T17:16:09.439Z,18.57
2017-12-19T17:18:35.195Z,16.73
2017-12-19T17:21:00.957Z,19.97
2017-12-19T17:23:26.739Z,18.47
2017-12-19T17:25:52.500Z,20.80
2017-12-19T17:28:18.275Z,20.67
2017-12-19T17:30:44.043Z,23.63
2017-12-19T17:33:09.831Z,22.50
2017-12-19T17:35:35.592Z,23.27
2017-12-19T17:38:01.360Z,21.67
2017-12-19T17:40:27.127Z,24.30
2017-12-19T17:42:52.916Z,25.50
2017-12-19T17:45:18.668Z,23.70
2017-12-19T17:47:44.435Z,23.33
2017-12-19T17:50:10.200Z,24.73
2017-12-19T17:52:35.961Z,23.20
2017-12-19T17:55:01.722Z,25.53
2017-12-19T17:57:27.480Z,31.07
2017-12-19T17:59:53.252Z,26.73
2017-12-19T18:02:19.003Z,27.03
2017-12-19T18:04:44.755Z,26.97
2017-12-19T18:07:10.508Z,25.63
2017-12-19T18:09:36.264Z,26.03
2017-12-19T18:12:02.019Z,28.60
2017-12-19T18:14:27.783Z,30.87
2017-12-19T18:16:53.533Z,28.47
2017-12-19T18:19:19.371Z,26.07
2017-12-19T18:21:45.124Z,29.40
2017-12-19T18:24:10.886Z,27.60
2017-12-19T18:26:36.639Z,30.83
2017-12-19T18:29:02.398Z,30.43
2017-12-19T18:31:28.163Z,31.93
2017-12-19T18:33:53.910Z,32.27
2017-12-19T18:36:19.673Z,34.87
2017-12-19T18:38:45.444Z,37.73
2017-12-19T18:41:11.206Z,36.97
2017-12-19T18:43:36.964Z,35.87
2017-12-19T18:46:02.732Z,39.20
2017-12-19T18:48:28.463Z,34.70
2017-12-19T18:50:54.219Z,36.40
2017-12-19T18:53:19.964Z,39.60
2017-12-19T18:55:45.717Z,33.83
2017-12-19T18:58:11.482Z,32.67
2017-12-19T19:00:37.263Z,32.83
2017-12-19T19:03:03.026Z,30.37
2017-12-19T19:05:28.784Z,29.80
2017-12-19T19:07:54.566Z,28.80
2017-12-19T19:10:20.311Z,30.20
2017-12-19T19:12:46.073Z,30.37
2017-12-19T19:15:11.841Z,28.97
2017-12-19T19:17:37.612Z,26.77
2017-12-19T19:20:03.392Z,29.37
2017-12-19T19:22:29.172Z,31.93
2017-12-19T19:24:54.944Z,28.57
2017-12-19T19:27:20.722Z,26.90
2017-12-19T19:29:46.492Z,28.13
2017-12-19T19:32:12.268Z,29.90
2017-12-19T19:34:38.024Z,27.20
2017-12-19T19:37:03.800Z,30.47
2017-12-19T19:39:29.543Z,28.97
2017-12-19T19:41:55.304Z,28.77
2017-12-19T19:44:21.076Z,29.03
2017-12-19T19:46:46.832Z,27.17
2017-12-19T19:49:12.584Z,31.37
2017-12-19T19:51:38.328Z,30.70
2017-12-19T19:54:04.105Z,29.60
2017-12-19T19:56:29.859Z,30.67
2017-12-19T19:58:55.619Z,32.03
2017-12-19T20:01:21.372Z,30.07
2017-12-19T20:03:47.135Z,32.07
2017-12-19T20:06:12.912Z,31.27
2017-12-19T20:08:38.652Z,31.50
2017-12-19T20:11:04.402Z,32.43
2017-12-19T20:13:30.159Z,34.33
2017-12-19T20:15:55.910Z,35.73
2017-12-19T20:18:21.655Z,33.43
2017-12-19T20:20:47.419Z,36.97
2017-12-19T20:23:13.174Z,34.67
2017-12-19T20:25:38.927Z,34.10
2017-12-19T20:28:04.691Z,32.90
2017-12-19T20:30:30.460Z,34.03
2017-12-19T20:32:56.224Z,30.67
2017-12-19T20:35:22.015Z,32.30
2017-12-19T20:37:47.788Z,32.00
2017-12-19T20:40:13.549Z,32.63
2017-12-19T20:42:39.300Z,35.53
2017-12-19T20:45:05.051Z,30.70
2017-12-19T20:47:30.803Z,30.70
2017-12-19T20:49:56.554Z,34.97
2017-12-19T20:52:22.299Z,31.43
2017-12-19T20:54:48.048Z,38.57
2017-12-19T20:57:13.804Z,34.87
2017-12-19T20:59:39.567Z,32.60
2017-12-19T21:02:05.337Z,34.93
2017-12-19T21:04:31.084Z,34.70
2017-12-19T21:06:56.831Z,34.60
2017-12-19T21:09:22.591Z,31.27
2017-12-19T21:11:48.363Z,40.80
2017-12-19T21:14:14.112Z,35.33
2017-12-19T21:16:39.868Z,36.17
2017-12-19T21:19:05.614Z,36.07
2017-12-19T21:21:31.363Z,32.47
2017-12-19T21:23:57.104Z,31.37
2017-12-19T21:26:22.876Z,31.77
2017-12-19T21:28:48.624Z,31.53
2017-12-19T21:31:14.363Z,36.30
2017-12-19T21:33:40.136Z,46.57
2017-12-19T21:36:05.891Z,58.47
2017-12-19T21:38:31.676Z,56.87
2017-12-19T21:40:57.415Z,63.43
2017-12-19T21:43:23.190Z,64.37
2017-12-19T21:45:48.936Z,70.50
2017-12-19T21:48:14.687Z,58.83
2017-12-19T21:50:40.441Z,72.80
2017-12-19T21:53:06.220Z,51.63
2017-12-19T21:55:31.974Z,56.27
2017-12-19T21:57:57.723Z,63.67
2017-12-19T22:00:23.467Z,72.03
2017-12-19T22:02:49.223Z,45.30
2017-12-19T22:05:14.975Z,35.40
2017-12-19T22:07:40.755Z,31.87
2017-12-19T22:10:06.504Z,29.97
2017-12-19T22:12:32.261Z,30.00
2017-12-19T22:14:58.024Z,28.50
2017-12-19T22:17:23.779Z,30.60
2017-12-19T22:19:49.532Z,29.23
2017-12-19T22:22:15.284Z,31.63
2017-12-19T22:24:41.060Z,29.23
2017-12-19T22:27:06.811Z,30.73
2017-12-19T22:29:32.555Z,30.30
2017-12-19T22:31:58.309Z,29.93
2017-12-19T22:34:24.076Z,29.73
2017-12-19T22:36:49.823Z,31.93
2017-12-19T22:39:15.592Z,32.63
2017-12-19T22:41:41.351Z,28.40
2017-12-19T22:44:07.115Z,30.93
2017-12-19T22:46:32.987Z,30.23
2017-12-19T22:48:58.742Z,29.80
2017-12-19T22:51:24.500Z,29.33
2017-12-19T22:53:50.253Z,29.50
2017-12-19T22:56:16.016Z,29.37
2017-12-19T22:58:41.778Z,30.17
2017-12-19T23:01:07.556Z,29.20
2017-12-19T23:03:33.316Z,28.23
2017-12-19T23:05:59.081Z,28.70
2017-12-19T23:08:24.848Z,29.73
2017-12-19T23:10:50.622Z,28.60
2017-12-19T23:13:16.381Z,27.70
2017-12-19T23:15:42.142Z,27.80
2017-12-19T23:18:07.919Z,27.27
2017-12-19T23:20:33.673Z,28.03
2017-12-19T23:22:59.435Z,28.30
2017-12-19T23:25:25.196Z,26.80
2017-12-19T23:27:50.952Z,30.37
2017-12-19T23:30:16.713Z,23.27
2017-12-19T23:32:42.482Z,25.57
2017-12-19T23:35:08.232Z,26.50
2017-12-19T23:37:34.006Z,25.97
2017-12-19T23:39:59.761Z,25.07
2017-12-19T23:42:25.500Z,24.30
2017-12-19T23:44:51.257Z,24.90
2017-12-19T23:47:17.008Z,25.00
2017-12-19T23:49:42.773Z,21.57
2017-12-19T23:52:08.531Z,21.13
2017-12-19T23:54:34.302Z,24.83
2017-12-19T23:57:00.068Z,27.10
2017-12-19T23:59:25.844Z,23.40
